createdAt,value
2019-03-05T00:00:54.271Z,8.42
2019-03-05T00:01:55.655Z,8.43
2019-03-05T00:02:57.047Z,8.40
2019-03-05T00:03:58.437Z,8.40
2019-03-05T00:04:59.829Z,8.37
2019-03-05T00:06:01.221Z,8.37
2019-03-05T00:07:02.617Z,8.42
2019-03-05T00:08:03.999Z,8.42
2019-03-05T00:09:05.386Z,8.37
2019-03-05T00:10:06.774Z,8.42
2019-03-05T00:11:08.203Z,8.42
2019-03-05T00:12:09.601Z,8.39
2019-03-05T00:13:10.994Z,8.34
2019-03-05T00:14:12.381Z,8.32
2019-03-05T00:15:13.770Z,8.34
2019-03-05T00:16:15.163Z,8.42
2019-03-05T00:17:16.560Z,8.40
2019-03-05T00:18:18.004Z,8.40
2019-03-05T00:19:19.398Z,8.39
2019-03-05T00:20:20.790Z,8.34
2019-03-05T00:21:22.181Z,8.39
2019-03-05T00:22:23.565Z,8.39
2019-03-05T00:23:24.954Z,8.36
2019-03-05T00:24:26.344Z,8.29
2019-03-05T00:25:27.731Z,8.40
2019-03-05T00:26:29.121Z,8.39
2019-03-05T00:27:30.513Z,8.36
2019-03-05T00:28:31.903Z,8.39
2019-03-05T00:29:33.312Z,8.31
2019-03-05T00:30:34.718Z,8.32
2019-03-05T00:31:36.111Z,8.32
2019-03-05T00:32:37.489Z,8.34
2019-03-05T00:33:38.883Z,8.36
2019-03-05T00:34:40.274Z,8.34
2019-03-05T00:35:41.660Z,8.36
2019-03-05T00:36:43.045Z,8.34
2019-03-05T00:37:44.425Z,8.24
2019-03-05T00:38:45.822Z,8.29
2019-03-05T00:39:47.215Z,8.31
2019-03-05T00:40:48.603Z,8.28
2019-03-05T00:41:50.007Z,8.25
2019-03-05T00:42:51.400Z,8.27
2019-03-05T00:43:52.793Z,8.25
2019-03-05T00:44:54.214Z,8.24
2019-03-05T00:45:55.623Z,8.21
2019-03-05T00:46:57.034Z,8.22
2019-03-05T00:47:58.448Z,8.21
2019-03-05T00:48:59.887Z,8.25
2019-03-05T00:50:01.304Z,8.28
2019-03-05T00:51:02.721Z,8.28
2019-03-05T00:52:04.134Z,8.36
2019-03-05T00:53:05.533Z,8.34
2019-03-05T00:54:06.953Z,8.36
2019-03-05T00:55:08.353Z,8.25
2019-03-05T00:56:09.756Z,8.28
2019-03-05T00:57:11.168Z,8.24
2019-03-05T00:58:12.579Z,8.28
2019-03-05T00:59:14.011Z,8.27
2019-03-05T01:00:15.403Z,8.22
2019-03-05T01:01:17.711Z,8.22
2019-03-05T01:02:20.086Z,8.21
2019-03-05T01:03:23.005Z,8.13
2019-03-05T01:04:26.485Z,8.13
2019-03-05T01:05:27.901Z,8.14
2019-03-05T01:06:29.294Z,8.14
2019-03-05T01:07:32.648Z,8.12
2019-03-05T01:08:34.049Z,8.20
2019-03-05T01:09:35.478Z,8.13
2019-03-05T01:10:36.894Z,8.09
2019-03-05T01:11:38.314Z,8.10
2019-03-05T01:12:39.704Z,8.14
2019-03-05T01:13:41.122Z,8.14
2019-03-05T01:14:42.534Z,8.06
2019-03-05T01:15:43.947Z,8.13
2019-03-05T01:16:45.362Z,8.10
2019-03-05T01:17:46.759Z,8.04
2019-03-05T01:18:48.168Z,8.03
2019-03-05T01:19:49.576Z,8.09
2019-03-05T01:20:50.989Z,8.03
2019-03-05T01:21:52.401Z,8.04
2019-03-05T01:22:53.823Z,8.02
2019-03-05T01:23:55.238Z,7.92
2019-03-05T01:24:56.651Z,8.12
2019-03-05T01:25:58.081Z,7.92
2019-03-05T01:26:59.537Z,7.99
2019-03-05T01:28:00.958Z,8.03
2019-03-05T01:29:02.361Z,8.00
2019-03-05T01:30:03.764Z,7.92
2019-03-05T01:31:05.168Z,8.00
2019-03-05T01:32:06.588Z,8.00
2019-03-05T01:33:08.001Z,7.95
2019-03-05T01:34:09.411Z,8.02
2019-03-05T01:35:10.848Z,7.95
2019-03-05T01:36:12.277Z,8.03
2019-03-05T01:37:13.698Z,7.95
2019-03-05T01:38:15.126Z,7.95
2019-03-05T01:39:16.567Z,8.04
2019-03-05T01:40:17.976Z,7.94
2019-03-05T01:41:19.390Z,7.95
2019-03-05T01:42:20.826Z,7.94
2019-03-05T01:43:22.262Z,7.84
2019-03-05T01:44:23.689Z,7.88
2019-03-05T01:45:25.120Z,7.86
2019-03-05T01:46:26.536Z,7.94
2019-03-05T01:47:27.934Z,7.88
2019-03-05T01:48:29.339Z,7.91
2019-03-05T01:49:30.779Z,7.86
2019-03-05T01:50:32.220Z,7.95
2019-03-05T01:51:33.631Z,7.85
2019-03-05T01:52:35.055Z,7.92
2019-03-05T01:53:36.469Z,7.99
2019-03-05T01:54:37.887Z,7.89
2019-03-05T01:55:39.286Z,7.85
2019-03-05T01:56:40.713Z,7.94
2019-03-05T01:57:42.107Z,8.02
2019-03-05T01:58:43.539Z,8.02
2019-03-05T01:59:44.978Z,7.96
2019-03-05T02:00:46.384Z,7.99
2019-03-05T02:01:47.799Z,7.94
2019-03-05T02:02:49.190Z,7.95
2019-03-05T02:03:50.612Z,8.04
2019-03-05T02:04:52.011Z,7.99
2019-03-05T02:05:53.425Z,7.96
2019-03-05T02:06:54.841Z,7.92
2019-03-05T02:07:56.272Z,7.92
2019-03-05T02:08:57.723Z,8.03
2019-03-05T02:09:59.136Z,8.02
2019-03-05T02:11:00.544Z,7.99
2019-03-05T02:12:01.938Z,7.94
2019-03-05T02:13:03.356Z,7.99
2019-03-05T02:14:04.764Z,8.04
2019-03-05T02:15:06.169Z,8.02
2019-03-05T02:16:07.580Z,8.02
2019-03-05T02:17:08.988Z,8.09
2019-03-05T02:18:10.417Z,8.02
2019-03-05T02:19:11.839Z,8.14
2019-03-05T02:20:13.261Z,8.09
2019-03-05T02:21:14.668Z,8.00
2019-03-05T02:22:16.083Z,7.99
2019-03-05T02:23:17.548Z,8.06
2019-03-05T02:24:18.966Z,8.04
2019-03-05T02:25:20.379Z,8.04
2019-03-05T02:26:21.802Z,7.92
2019-03-05T02:27:23.211Z,8.03
2019-03-05T02:28:24.629Z,8.03
2019-03-05T02:29:25.988Z,8.03
2019-03-05T02:30:27.386Z,7.99
2019-03-05T02:31:28.801Z,8.07
2019-03-05T02:32:30.205Z,7.96
2019-03-05T02:33:31.594Z,7.99
2019-03-05T02:34:32.995Z,8.00
2019-03-05T02:35:34.403Z,7.92
2019-03-05T02:36:35.839Z,8.02
2019-03-05T02:37:37.256Z,7.92
2019-03-05T02:38:38.641Z,7.99
2019-03-05T02:39:40.045Z,8.09
2019-03-05T02:40:41.484Z,8.03
2019-03-05T02:41:42.874Z,8.00
2019-03-05T02:42:44.258Z,8.00
2019-03-05T02:43:45.645Z,7.94
2019-03-05T02:44:47.060Z,7.96
2019-03-05T02:45:49.418Z,8.03
2019-03-05T02:46:49.824Z,8.09
2019-03-05T02:47:51.257Z,8.12
2019-03-05T02:48:52.651Z,8.12
2019-03-05T02:49:54.134Z,8.12
2019-03-05T02:50:55.438Z,8.12
2019-03-05T02:51:56.851Z,8.10
2019-03-05T02:53:00.426Z,7.95
2019-03-05T02:53:59.630Z,8.09
2019-03-05T02:55:01.048Z,8.03
2019-03-05T02:56:02.434Z,8.09
2019-03-05T02:57:03.832Z,7.96
2019-03-05T02:58:05.249Z,8.12
2019-03-05T02:59:06.649Z,8.12
2019-03-05T03:00:08.040Z,8.12
2019-03-05T03:01:09.431Z,7.96
2019-03-05T03:02:10.872Z,8.04
2019-03-05T03:03:12.284Z,7.88
2019-03-05T03:04:13.699Z,7.99
2019-03-05T03:05:15.074Z,7.95
2019-03-05T03:06:17.153Z,7.96
2019-03-05T03:07:18.564Z,8.00
2019-03-05T03:08:19.960Z,8.12
2019-03-05T03:09:21.369Z,8.07
2019-03-05T03:10:22.799Z,8.03
2019-03-05T03:11:24.195Z,8.06
2019-03-05T03:12:25.599Z,8.02
2019-03-05T03:13:27.057Z,8.09
2019-03-05T03:14:28.475Z,8.07
2019-03-05T03:15:29.883Z,8.06
2019-03-05T03:16:31.272Z,8.06
2019-03-05T03:17:32.685Z,7.96
2019-03-05T03:18:34.080Z,7.99
2019-03-05T03:19:35.477Z,7.94
2019-03-05T03:20:36.880Z,7.91
2019-03-05T03:21:39.183Z,8.02
2019-03-05T03:22:40.580Z,8.00
2019-03-05T03:23:41.989Z,8.00
2019-03-05T03:24:43.438Z,7.96
2019-03-05T03:25:44.917Z,8.00
2019-03-05T03:26:46.302Z,7.96
2019-03-05T03:27:47.715Z,8.00
2019-03-05T03:28:49.118Z,7.95
2019-03-05T03:29:50.528Z,7.96
2019-03-05T03:30:51.933Z,7.99
2019-03-05T03:31:53.335Z,8.00
2019-03-05T03:32:54.761Z,7.99
2019-03-05T03:33:56.176Z,7.99
2019-03-05T03:34:57.593Z,8.00
2019-03-05T03:35:59.018Z,7.92
2019-03-05T03:37:00.421Z,7.95
2019-03-05T03:38:01.843Z,7.99
2019-03-05T03:39:03.258Z,7.95
2019-03-05T03:40:06.135Z,7.95
2019-03-05T03:41:06.047Z,7.95
2019-03-05T03:42:07.465Z,7.94
2019-03-05T03:43:08.884Z,7.95
2019-03-05T03:44:10.278Z,7.95
2019-03-05T03:45:11.705Z,7.96
2019-03-05T03:46:13.101Z,7.96
2019-03-05T03:47:14.508Z,7.96
2019-03-05T03:48:15.916Z,7.92
2019-03-05T03:49:17.314Z,8.02
2019-03-05T03:50:18.726Z,7.92
2019-03-05T03:51:20.111Z,7.92
2019-03-05T03:52:21.526Z,8.00
2019-03-05T03:53:22.941Z,7.95
2019-03-05T03:54:24.345Z,7.95
2019-03-05T03:55:25.764Z,7.92
2019-03-05T03:56:27.164Z,7.96
2019-03-05T03:57:28.577Z,7.94
2019-03-05T03:58:29.983Z,7.94
2019-03-05T03:59:31.402Z,7.88
2019-03-05T04:00:32.809Z,7.99
2019-03-05T04:01:34.223Z,7.92
2019-03-05T04:02:35.614Z,7.92
2019-03-05T04:03:37.027Z,8.04
2019-03-05T04:04:38.437Z,7.96
2019-03-05T04:05:39.849Z,8.00
2019-03-05T04:06:42.162Z,7.92
2019-03-05T04:07:43.593Z,8.00
2019-03-05T04:08:44.998Z,7.96
2019-03-05T04:09:46.408Z,7.91
2019-03-05T04:10:47.795Z,7.96
2019-03-05T04:11:49.204Z,8.03
2019-03-05T04:12:50.640Z,7.95
2019-03-05T04:13:52.049Z,7.94
2019-03-05T04:14:53.446Z,7.99
2019-03-05T04:15:54.848Z,7.94
2019-03-05T04:16:56.251Z,7.85
2019-03-05T04:17:57.658Z,7.89
2019-03-05T04:18:59.098Z,7.92
2019-03-05T04:20:00.555Z,7.94
2019-03-05T04:21:01.904Z,7.85
2019-03-05T04:22:03.305Z,7.84
2019-03-05T04:23:05.598Z,7.89
2019-03-05T04:24:07.022Z,7.85
2019-03-05T04:25:08.415Z,7.84
2019-03-05T04:26:09.835Z,7.82
2019-03-05T04:27:11.213Z,7.88
2019-03-05T04:28:12.645Z,7.86
2019-03-05T04:29:14.155Z,7.84
2019-03-05T04:30:15.434Z,7.84
2019-03-05T04:31:16.838Z,7.76
2019-03-05T04:32:18.243Z,7.76
2019-03-05T04:33:19.649Z,7.74
2019-03-05T04:34:21.062Z,7.79
2019-03-05T04:35:22.467Z,7.77
2019-03-05T04:36:23.868Z,7.71
2019-03-05T04:37:25.273Z,7.73
2019-03-05T04:38:26.666Z,7.66
2019-03-05T04:39:28.076Z,7.74
2019-03-05T04:40:29.497Z,7.69
2019-03-05T04:41:30.912Z,7.60
2019-03-05T04:42:32.317Z,7.66
2019-03-05T04:43:33.734Z,7.63
2019-03-05T04:44:35.134Z,7.70
2019-03-05T04:45:36.543Z,7.62
2019-03-05T04:46:37.960Z,7.58
2019-03-05T04:47:39.346Z,7.62
2019-03-05T04:48:40.772Z,7.63
2019-03-05T04:49:42.178Z,7.57
2019-03-05T04:50:43.614Z,7.45
2019-03-05T04:51:45.019Z,7.54
2019-03-05T04:52:46.425Z,7.48
2019-03-05T04:53:47.837Z,7.55
2019-03-05T04:54:49.234Z,7.48
2019-03-05T04:55:50.643Z,7.44
2019-03-05T04:56:52.050Z,7.44
2019-03-05T04:57:53.477Z,7.34
2019-03-05T04:58:54.894Z,7.44
2019-03-05T04:59:56.328Z,7.37
2019-03-05T05:00:57.734Z,7.33
2019-03-05T05:01:59.144Z,7.33
2019-03-05T05:03:00.538Z,7.29
2019-03-05T05:04:01.952Z,7.33
2019-03-05T05:05:03.387Z,7.34
2019-03-05T05:06:04.811Z,7.26
2019-03-05T05:07:06.206Z,7.21
2019-03-05T05:08:07.629Z,7.15
2019-03-05T05:09:09.018Z,7.15
2019-03-05T05:10:10.459Z,7.16
2019-03-05T05:11:11.890Z,7.23
2019-03-05T05:12:13.277Z,7.15
2019-03-05T05:13:14.672Z,7.16
2019-03-05T05:14:16.091Z,7.05
2019-03-05T05:15:17.486Z,7.01
2019-03-05T05:16:18.905Z,7.01
2019-03-05T05:17:20.323Z,7.09
2019-03-05T05:18:21.715Z,7.04
2019-03-05T05:19:23.154Z,7.05
2019-03-05T05:20:24.632Z,7.00
2019-03-05T05:21:26.004Z,7.01
2019-03-05T05:22:27.393Z,7.05
2019-03-05T05:23:28.811Z,7.05
2019-03-05T05:24:30.202Z,7.07
2019-03-05T05:25:31.592Z,7.05
2019-03-05T05:26:33.812Z,7.05
2019-03-05T05:27:35.209Z,7.09
2019-03-05T05:28:36.628Z,7.04
2019-03-05T05:29:38.915Z,7.04
2019-03-05T05:30:40.190Z,7.08
2019-03-05T05:31:41.618Z,7.18
2019-03-05T05:32:43.032Z,7.14
2019-03-05T05:33:44.492Z,7.09
2019-03-05T05:34:45.911Z,7.11
2019-03-05T05:35:48.061Z,7.09
2019-03-05T05:36:49.488Z,7.07
2019-03-05T05:37:50.909Z,7.07
2019-03-05T05:38:52.311Z,7.07
2019-03-05T05:39:53.744Z,7.05
2019-03-05T05:40:55.145Z,7.01
2019-03-05T05:41:56.549Z,6.99
2019-03-05T05:42:57.961Z,7.04
2019-03-05T05:43:59.360Z,7.08
2019-03-05T05:45:00.761Z,6.99
2019-03-05T05:46:02.168Z,6.97
2019-03-05T05:47:03.569Z,6.97
2019-03-05T05:48:04.983Z,7.00
2019-03-05T05:49:06.397Z,6.93
2019-03-05T05:50:07.813Z,7.01
2019-03-05T05:51:09.244Z,7.05
2019-03-05T05:52:10.659Z,7.00
2019-03-05T05:53:12.053Z,7.01
2019-03-05T05:54:13.507Z,7.05
2019-03-05T05:55:14.950Z,7.07
2019-03-05T05:56:16.348Z,7.04
2019-03-05T05:57:17.750Z,7.05
2019-03-05T05:58:19.150Z,7.01
2019-03-05T05:59:20.551Z,7.07
2019-03-05T06:00:21.947Z,7.04
2019-03-05T06:01:23.338Z,7.09
2019-03-05T06:02:24.739Z,7.07
2019-03-05T06:03:26.160Z,7.00
2019-03-05T06:04:27.610Z,7.01
2019-03-05T06:05:29.055Z,7.01
2019-03-05T06:06:30.495Z,7.05
2019-03-05T06:07:31.954Z,7.01
2019-03-05T06:08:33.393Z,7.08
2019-03-05T06:09:34.824Z,7.04
2019-03-05T06:10:36.227Z,7.07
2019-03-05T06:11:37.620Z,7.07
2019-03-05T06:12:39.039Z,7.09
2019-03-05T06:13:40.481Z,7.07
2019-03-05T06:14:41.918Z,7.04
2019-03-05T06:15:43.323Z,7.07
2019-03-05T06:16:44.734Z,7.04
2019-03-05T06:17:46.163Z,7.16
2019-03-05T06:18:47.572Z,7.09
2019-03-05T06:19:48.996Z,7.15
2019-03-05T06:20:50.455Z,7.12
2019-03-05T06:21:51.835Z,7.15
2019-03-05T06:22:53.248Z,7.16
2019-03-05T06:23:54.668Z,7.16
2019-03-05T06:24:56.090Z,7.21
2019-03-05T06:25:57.504Z,7.24
2019-03-05T06:26:58.900Z,7.19
2019-03-05T06:28:00.296Z,7.24
2019-03-05T06:29:01.734Z,7.26
2019-03-05T06:30:03.874Z,7.26
2019-03-05T06:31:05.284Z,7.15
2019-03-05T06:32:06.682Z,7.15
2019-03-05T06:33:08.136Z,7.12
2019-03-05T06:34:09.558Z,7.18
2019-03-05T06:35:11.005Z,7.30
2019-03-05T06:36:12.406Z,7.26
2019-03-05T06:37:13.801Z,7.15
2019-03-05T06:38:15.217Z,7.30
2019-03-05T06:39:16.625Z,7.19
2019-03-05T06:40:18.037Z,7.29
2019-03-05T06:41:19.451Z,7.29
2019-03-05T06:42:20.873Z,7.23
2019-03-05T06:43:22.279Z,7.36
2019-03-05T06:44:23.731Z,7.26
2019-03-05T06:45:25.173Z,7.30
2019-03-05T06:46:26.599Z,7.36
2019-03-05T06:47:28.009Z,7.36
2019-03-05T06:48:29.452Z,7.37
2019-03-05T06:49:30.899Z,7.32
2019-03-05T06:50:32.325Z,7.41
2019-03-05T06:51:33.746Z,7.32
2019-03-05T06:52:35.156Z,7.42
2019-03-05T06:53:37.237Z,7.41
2019-03-05T06:54:38.652Z,7.42
2019-03-05T06:55:40.067Z,7.50
2019-03-05T06:56:41.472Z,7.47
2019-03-05T06:57:42.882Z,7.47
2019-03-05T06:58:44.292Z,7.51
2019-03-05T06:59:45.711Z,7.52
2019-03-05T07:00:47.126Z,7.57
2019-03-05T07:01:48.545Z,7.55
2019-03-05T07:02:49.948Z,7.62
2019-03-05T07:03:51.362Z,7.63
2019-03-05T07:04:52.809Z,7.66
2019-03-05T07:05:54.241Z,7.66
2019-03-05T07:06:55.645Z,7.60
2019-03-05T07:07:57.053Z,7.69
2019-03-05T07:08:58.483Z,7.57
2019-03-05T07:09:59.906Z,7.67
2019-03-05T07:11:01.347Z,7.71
2019-03-05T07:12:02.738Z,7.66
2019-03-05T07:13:04.135Z,7.69
2019-03-05T07:14:05.531Z,7.62
2019-03-05T07:15:06.924Z,7.67
2019-03-05T07:16:08.303Z,7.60
2019-03-05T07:17:09.695Z,7.63
2019-03-05T07:18:11.092Z,7.62
2019-03-05T07:19:12.494Z,7.66
2019-03-05T07:20:13.883Z,7.66
2019-03-05T07:21:15.319Z,7.63
2019-03-05T07:22:16.710Z,7.69
2019-03-05T07:23:18.121Z,7.67
2019-03-05T07:24:19.538Z,7.70
2019-03-05T07:25:20.957Z,7.73
2019-03-05T07:26:22.360Z,7.77
2019-03-05T07:27:23.814Z,7.73
2019-03-05T07:28:25.238Z,7.74
2019-03-05T15:18:12.060Z,8.09
2019-03-05T15:19:21.244Z,8.02
2019-03-05T15:20:14.858Z,8.02
2019-03-05T15:21:16.312Z,8.04
2019-03-05T15:22:17.730Z,7.99
2019-03-05T15:23:19.225Z,8.12
2019-03-05T15:24:20.531Z,8.07
2019-03-05T15:25:21.984Z,8.14
2019-03-05T15:26:23.397Z,8.17
2019-03-05T15:27:24.950Z,8.14
2019-03-05T15:28:26.352Z,8.13
2019-03-05T15:29:27.828Z,8.21
2019-03-05T15:30:29.337Z,8.36
2019-03-05T15:31:30.656Z,8.34
2019-03-05T15:32:32.086Z,8.39
2019-03-05T15:33:33.457Z,8.42
2019-03-05T15:34:34.931Z,8.45
2019-03-05T15:35:36.388Z,8.42
2019-03-05T15:36:37.870Z,8.60
2019-03-05T15:37:39.334Z,8.57
2019-03-05T15:38:40.824Z,8.55
2019-03-05T15:39:42.289Z,8.61
2019-03-05T15:40:43.688Z,8.71
2019-03-05T15:41:45.965Z,8.64
2019-03-05T15:42:46.542Z,8.67
2019-03-05T15:43:48.049Z,8.64
2019-03-05T15:44:49.648Z,8.82
2019-03-05T15:45:50.906Z,8.75
2019-03-05T15:46:52.384Z,8.80
2019-03-05T15:47:53.764Z,8.80
2019-03-05T15:48:55.322Z,8.76
2019-03-05T15:49:57.639Z,8.89
2019-03-05T15:50:58.927Z,8.79
2019-03-05T15:52:00.363Z,8.88
2019-03-05T15:53:01.815Z,8.82
2019-03-05T15:54:03.253Z,8.86
2019-03-05T15:55:04.694Z,8.83
2019-03-05T15:56:06.146Z,8.86
2019-03-05T15:57:07.571Z,8.82
2019-03-05T15:58:09.091Z,8.83
2019-03-05T15:59:10.492Z,8.85
2019-03-05T16:00:12.021Z,8.82
2019-03-05T16:01:21.907Z,8.78
2019-03-05T16:02:14.833Z,8.79
2019-03-05T16:03:16.499Z,8.75
2019-03-05T16:04:18.032Z,8.83
2019-03-05T16:05:20.882Z,8.71
2019-03-05T16:06:20.909Z,8.71
2019-03-05T16:07:22.313Z,8.73
2019-03-05T16:08:25.003Z,8.70
2019-03-05T16:09:25.138Z,8.68
2019-03-05T16:10:26.544Z,8.65
2019-03-05T16:11:30.168Z,8.65
2019-03-05T16:12:29.317Z,8.63
2019-03-05T16:13:32.496Z,8.65
2019-03-05T16:14:32.874Z,8.61
2019-03-05T16:15:33.602Z,8.50
2019-03-05T16:16:35.150Z,8.54
2019-03-05T16:17:36.618Z,8.54
2019-03-05T16:18:39.059Z,8.55
2019-03-05T16:19:39.416Z,8.43
2019-03-05T16:20:40.841Z,8.46
2019-03-05T16:21:42.834Z,8.37
2019-03-05T16:22:43.620Z,8.36
2019-03-05T16:23:45.036Z,8.34
2019-03-05T16:24:46.478Z,8.29
2019-03-05T16:25:50.441Z,8.28
2019-03-05T16:26:51.115Z,8.24
2019-03-05T16:27:50.694Z,8.28
2019-03-05T16:28:52.098Z,8.24
2019-03-05T16:29:55.835Z,8.24
2019-03-05T16:30:54.875Z,8.22
2019-03-05T16:31:56.309Z,8.17
2019-03-05T16:32:59.982Z,8.17
2019-03-05T16:33:59.086Z,8.21
2019-03-05T16:35:00.492Z,8.22
2019-03-05T16:36:01.902Z,8.13
2019-03-05T16:37:05.764Z,8.13
2019-03-05T16:38:05.453Z,7.99
2019-03-05T16:39:06.843Z,7.99
2019-03-05T16:40:08.957Z,8.00
2019-03-05T16:41:09.619Z,8.03
2019-03-05T16:42:11.049Z,7.95
2019-03-05T16:43:12.462Z,7.94
2019-03-05T16:44:13.916Z,7.84
2019-03-05T16:45:15.339Z,7.89
2019-03-05T16:46:16.766Z,7.86
2019-03-05T16:47:18.204Z,7.86
2019-03-05T16:48:19.640Z,7.76
2019-03-05T16:49:21.086Z,7.77
2019-03-05T16:50:22.478Z,7.71
2019-03-05T16:51:23.864Z,7.66
2019-03-05T16:52:25.287Z,7.71
2019-03-05T16:53:26.712Z,7.58
2019-03-05T16:54:28.568Z,7.55
2019-03-05T16:55:29.923Z,7.51
2019-03-05T16:56:31.324Z,7.48
2019-03-05T16:57:32.748Z,7.42
2019-03-05T16:58:34.151Z,7.39
2019-03-05T16:59:36.181Z,7.21
2019-03-05T17:00:37.594Z,7.15
2019-03-05T17:01:38.995Z,7.24
2019-03-05T17:02:40.427Z,7.16
2019-03-05T17:03:41.792Z,7.16
2019-03-05T17:04:43.201Z,7.14
2019-03-05T17:05:44.592Z,7.04
2019-03-05T17:06:46.047Z,7.01
2019-03-05T17:07:47.486Z,6.96
2019-03-05T17:08:48.897Z,6.93
2019-03-05T17:09:50.337Z,6.89
2019-03-05T17:10:51.756Z,6.79
2019-03-05T17:11:53.157Z,6.87
2019-03-05T17:12:54.559Z,6.82
2019-03-05T17:13:55.947Z,6.61
2019-03-05T17:14:57.396Z,6.68
2019-03-05T17:15:58.886Z,6.65
2019-03-05T17:17:00.309Z,6.58
2019-03-05T17:18:01.727Z,6.55
2019-03-05T17:19:03.153Z,6.57
2019-03-05T17:20:04.558Z,6.53
2019-03-05T17:21:05.974Z,6.53
2019-03-05T17:22:07.350Z,6.45
2019-03-05T17:23:08.754Z,6.46
2019-03-05T17:24:10.154Z,6.43
2019-03-05T17:25:11.575Z,6.42
2019-03-05T17:26:12.952Z,6.46
2019-03-05T17:27:14.396Z,6.42
2019-03-05T17:28:15.806Z,6.32
2019-03-05T17:29:17.222Z,6.30
2019-03-05T17:30:18.637Z,6.25
2019-03-05T17:31:20.047Z,6.28
2019-03-05T17:32:21.504Z,6.35
2019-03-05T17:33:22.909Z,6.33
2019-03-05T17:34:24.287Z,6.24
2019-03-05T17:35:25.699Z,6.19
2019-03-05T17:36:27.148Z,6.19
2019-03-05T17:37:28.521Z,6.17
2019-03-05T17:38:29.945Z,6.17
2019-03-05T17:39:31.407Z,6.17
2019-03-05T17:40:32.808Z,6.16
2019-03-05T17:41:34.248Z,6.11
2019-03-05T17:42:35.682Z,6.13
2019-03-05T17:43:37.134Z,6.16
2019-03-05T17:44:38.573Z,6.19
2019-03-05T17:45:39.981Z,6.08
2019-03-05T17:46:41.436Z,5.95
2019-03-05T17:47:42.877Z,6.05
2019-03-05T17:48:44.306Z,6.02
2019-03-05T17:49:45.755Z,5.99
2019-03-05T17:50:47.226Z,6.01
2019-03-05T17:51:48.595Z,6.03
2019-03-05T17:52:49.988Z,5.96
2019-03-05T17:53:51.428Z,6.01
2019-03-05T17:54:52.848Z,5.96
2019-03-05T17:55:54.241Z,6.01
2019-03-05T17:56:55.669Z,5.95
2019-03-05T17:57:57.113Z,5.87
2019-03-05T17:58:58.509Z,5.88
2019-03-05T17:59:59.943Z,5.88
2019-03-05T18:01:01.335Z,5.84
2019-03-05T18:02:02.875Z,5.83
2019-03-05T18:03:04.266Z,5.87
2019-03-05T18:04:05.661Z,5.80
2019-03-05T18:05:07.067Z,5.85
2019-03-05T18:06:08.530Z,5.78
2019-03-05T18:07:09.930Z,5.80
2019-03-05T18:08:11.430Z,5.81
2019-03-05T18:09:12.809Z,5.78
2019-03-05T18:10:14.237Z,5.78
2019-03-05T18:11:15.690Z,5.92
2019-03-05T18:12:17.099Z,5.83
2019-03-05T18:13:19.138Z,5.80
2019-03-05T18:14:20.551Z,5.78
2019-03-05T18:15:21.967Z,5.75
2019-03-05T18:16:23.362Z,5.74
2019-03-05T18:17:24.816Z,5.77
2019-03-05T18:18:26.228Z,5.73
2019-03-05T18:19:27.722Z,5.73
2019-03-05T18:20:29.131Z,5.80
2019-03-05T18:21:30.558Z,5.80
2019-03-05T18:22:31.975Z,5.80
2019-03-05T18:23:33.383Z,5.70
2019-03-05T18:24:34.800Z,5.77
2019-03-05T18:25:36.818Z,5.60
2019-03-05T18:26:38.244Z,5.63
2019-03-05T18:27:39.695Z,5.73
2019-03-05T18:28:41.081Z,5.62
2019-03-05T18:29:42.492Z,5.66
2019-03-05T18:30:43.930Z,5.74
2019-03-05T18:31:45.375Z,5.70
2019-03-05T18:32:46.728Z,5.73
2019-03-05T18:33:48.114Z,5.58
2019-03-05T18:34:49.552Z,5.65
2019-03-05T18:35:51.270Z,5.52
2019-03-05T18:36:52.663Z,5.62
2019-03-05T18:37:56.099Z,5.49
2019-03-05T18:38:57.508Z,5.52
2019-03-05T18:39:58.952Z,5.59
2019-03-05T18:41:00.354Z,5.58
2019-03-05T18:42:01.782Z,5.41
2019-03-05T18:43:03.177Z,5.44
2019-03-05T18:44:09.649Z,5.44
2019-03-05T18:45:11.080Z,5.42
2019-03-05T18:46:12.494Z,5.45
2019-03-05T18:47:13.896Z,5.47
2019-03-05T18:48:15.302Z,5.44
2019-03-05T18:49:16.708Z,5.41
2019-03-05T18:50:19.547Z,5.44
2019-03-05T18:51:20.980Z,5.44
2019-03-05T18:52:22.967Z,5.40
2019-03-05T18:53:24.398Z,5.35
2019-03-05T18:54:25.778Z,5.38
2019-03-05T18:55:27.208Z,5.37
2019-03-05T18:56:28.623Z,5.29
2019-03-05T18:57:30.029Z,5.30
2019-03-05T18:58:31.404Z,5.27
2019-03-05T18:59:32.814Z,5.30
2019-03-05T19:00:35.263Z,5.29
2019-03-05T19:01:38.103Z,5.30
2019-03-05T19:02:39.504Z,5.27
2019-03-05T19:03:41.709Z,5.27
2019-03-05T19:04:43.151Z,5.24
2019-03-05T19:05:44.543Z,5.19
2019-03-05T19:06:45.995Z,5.24
2019-03-05T19:07:47.414Z,5.20
2019-03-05T19:08:48.851Z,5.19
2019-03-05T19:09:50.232Z,5.14
2019-03-05T19:10:51.675Z,5.14
2019-03-05T19:11:53.125Z,5.14
2019-03-05T19:12:54.569Z,5.15
2019-03-05T19:13:56.026Z,5.08
2019-03-05T19:14:58.024Z,5.19
2019-03-05T19:16:00.603Z,5.15
2019-03-05T19:17:02.018Z,5.12
2019-03-05T19:18:03.506Z,5.11
2019-03-05T19:19:04.919Z,5.06
2019-03-05T19:20:06.373Z,5.12
2019-03-05T19:21:07.758Z,5.12
2019-03-05T19:22:09.737Z,5.14
2019-03-05T19:23:11.147Z,5.09
2019-03-05T19:24:13.449Z,4.96
2019-03-05T19:25:14.892Z,5.08
2019-03-05T19:26:16.476Z,5.02
2019-03-05T19:27:25.889Z,4.91
2019-03-05T19:28:19.390Z,4.99
2019-03-05T19:29:21.839Z,4.99
2019-03-05T19:30:24.010Z,4.99
2019-03-05T19:31:25.516Z,5.01
2019-03-05T19:32:29.029Z,4.91
2019-03-05T19:33:29.801Z,4.93
2019-03-05T19:34:31.246Z,4.94
2019-03-05T19:35:32.724Z,4.90
2019-03-05T19:36:34.940Z,4.99
2019-03-05T19:37:37.114Z,4.93
2019-03-05T19:38:38.576Z,4.93
2019-03-05T19:39:40.028Z,4.93
2019-03-05T19:40:41.510Z,4.97
2019-03-05T19:41:42.988Z,4.93
2019-03-05T19:42:44.411Z,4.91
2019-03-05T19:43:46.461Z,4.80
2019-03-05T19:44:47.927Z,4.83
2019-03-05T19:45:49.388Z,4.80
2019-03-05T19:46:51.532Z,4.84
2019-03-05T19:47:52.324Z,4.79
2019-03-05T19:48:54.672Z,4.74
2019-03-05T19:49:56.756Z,4.74
2019-03-05T19:50:58.903Z,4.77
2019-03-05T19:52:05.033Z,4.79
2019-03-05T19:53:05.574Z,4.71
2019-03-05T19:54:07.092Z,4.69
2019-03-05T19:55:10.736Z,4.65
2019-03-05T19:56:13.231Z,4.72
2019-03-05T19:57:16.029Z,4.74
2019-03-05T19:58:16.979Z,4.72
2019-03-05T19:59:19.113Z,4.75
2019-03-05T20:00:22.115Z,4.69
2019-03-05T20:01:26.270Z,4.75
2019-03-05T20:02:30.152Z,4.72
2019-03-05T20:03:32.433Z,4.67
2019-03-05T20:04:33.945Z,4.69
2019-03-05T20:05:37.746Z,4.69
2019-03-05T20:06:41.694Z,4.65
2019-03-05T20:07:43.163Z,4.62
2019-03-05T20:08:48.758Z,4.59
2019-03-05T20:09:51.625Z,4.54
2019-03-05T20:10:54.064Z,4.57
2019-03-05T20:11:57.082Z,4.54
2019-03-05T20:12:59.404Z,4.47
2019-03-05T20:14:02.506Z,4.51
2019-03-05T20:15:06.430Z,4.54
2019-03-05T20:16:07.921Z,4.53
2019-03-05T20:17:09.404Z,4.51
2019-03-05T20:18:12.112Z,4.47
2019-03-05T20:19:14.445Z,4.49
2019-03-05T20:20:17.109Z,4.54
2019-03-05T20:21:19.215Z,4.46
2019-03-05T20:22:22.324Z,4.51
2019-03-05T20:23:24.700Z,4.49
2019-03-05T20:24:27.072Z,4.50
2019-03-05T20:25:28.575Z,4.43
2019-03-05T20:26:30.880Z,4.47
2019-03-05T20:27:34.513Z,4.43
2019-03-05T20:28:36.720Z,4.44
2019-03-05T20:29:40.050Z,4.53
2019-03-05T20:30:43.080Z,4.46
2019-03-05T20:31:46.242Z,4.47
2019-03-05T20:32:49.537Z,4.42
2019-03-05T20:33:50.769Z,4.49
2019-03-05T20:34:55.625Z,4.50
2019-03-05T20:35:57.698Z,4.42
2019-03-05T20:36:59.977Z,4.36
2019-03-05T20:38:02.498Z,4.43
2019-03-05T20:39:05.118Z,4.49
2019-03-05T20:40:08.161Z,4.43
2019-03-05T20:41:09.651Z,4.44
2019-03-05T20:42:11.175Z,4.36
2019-03-05T20:43:13.649Z,4.42
2019-03-05T20:44:16.032Z,4.44
2019-03-05T20:45:18.216Z,4.42
2019-03-05T20:46:19.724Z,4.38
2019-03-05T20:47:22.702Z,4.25
2019-03-05T20:48:25.217Z,4.29
2019-03-05T20:49:29.126Z,4.28
2019-03-05T20:50:31.264Z,4.32
2019-03-05T20:51:34.232Z,4.35
2019-03-05T20:52:38.538Z,4.38
2019-03-05T20:53:40.040Z,4.31
2019-03-05T20:54:43.102Z,4.32
2019-03-05T20:55:45.151Z,4.26
2019-03-05T20:56:47.286Z,4.25
2019-03-05T20:57:49.530Z,4.18
2019-03-05T20:58:50.969Z,4.24
2019-03-05T20:59:54.078Z,4.24
2019-03-05T21:00:55.543Z,4.28
2019-03-05T21:01:57.884Z,4.26
2019-03-05T21:03:00.534Z,4.16
2019-03-05T21:04:02.129Z,4.25
2019-03-05T21:05:03.608Z,4.14
2019-03-05T21:06:06.535Z,4.24
2019-03-05T21:07:08.144Z,4.21
2019-03-05T21:08:10.384Z,4.11
2019-03-05T21:09:12.541Z,4.20
2019-03-05T21:10:13.994Z,4.16
2019-03-05T21:11:16.274Z,4.16
2019-03-05T21:12:18.289Z,4.08
2019-03-05T21:13:19.720Z,4.00
2019-03-05T21:14:23.208Z,4.10
2019-03-05T21:15:24.639Z,4.07
2019-03-05T21:16:26.092Z,4.11
2019-03-05T21:17:28.481Z,4.08
2019-03-05T21:18:30.673Z,4.10
2019-03-05T21:19:34.312Z,4.06
2019-03-05T21:20:35.757Z,4.00
2019-03-05T21:21:37.211Z,3.99
2019-03-05T21:22:39.304Z,4.07
2019-03-05T21:23:40.777Z,4.04
2019-03-05T21:24:42.990Z,3.90
2019-03-05T21:25:44.425Z,3.96
2019-03-05T21:26:47.282Z,3.95
2019-03-05T21:27:49.675Z,3.89
2019-03-05T21:28:53.604Z,3.99